createdAt,value
2016-05-29T00:00:55.591Z,0
2016-05-29T00:01:56.016Z,0
2016-05-29T00:02:55.768Z,0
2016-05-29T00:03:55.756Z,0
2016-05-29T00:04:55.634Z,0
2016-05-29T00:05:55.809Z,0
2016-05-29T00:06:55.623Z,0
2016-05-29T00:07:55.767Z,0
2016-05-29T00:08:55.629Z,0
2016-05-29T00:09:55.787Z,0
2016-05-29T00:10:55.634Z,0
2016-05-29T00:11:55.636Z,0
2016-05-29T00:12:55.781Z,0
2016-05-29T00:13:55.783Z,0
2016-05-29T00:14:55.800Z,0
2016-05-29T00:15:55.788Z,0
2016-05-29T00:16:55.650Z,0
2016-05-29T00:17:55.637Z,0
2016-05-29T00:18:55.500Z,0
2016-05-29T00:19:55.799Z,0
2016-05-29T00:20:56.286Z,0
2016-05-29T00:21:55.648Z,0
2016-05-29T00:22:55.807Z,0
2016-05-29T00:23:55.653Z,0
2016-05-29T00:24:55.641Z,0
2016-05-29T00:25:55.643Z,0
2016-05-29T00:26:55.521Z,0
2016-05-29T00:27:55.648Z,0
2016-05-29T00:28:55.838Z,0
2016-05-29T00:29:55.826Z,0
2016-05-29T00:30:55.829Z,0
2016-05-29T00:31:55.815Z,0
2016-05-29T00:32:55.677Z,0
2016-05-29T00:33:55.821Z,0
2016-05-29T00:34:55.871Z,0
2016-05-29T00:35:56.092Z,0
2016-05-29T00:36:55.829Z,0
2016-05-29T00:37:55.831Z,0
2016-05-29T00:38:56.084Z,0
2016-05-29T00:39:55.681Z,0
2016-05-29T00:40:55.856Z,0
2016-05-29T00:41:55.701Z,0
2016-05-29T00:42:55.673Z,0
2016-05-29T00:43:55.692Z,0
2016-05-29T00:44:55.866Z,0
2016-05-29T00:45:55.681Z,0
2016-05-29T00:46:55.544Z,0
2016-05-29T00:47:55.702Z,0
2016-05-29T00:48:55.705Z,0
2016-05-29T00:49:55.708Z,0
2016-05-29T00:50:55.897Z,0
2016-05-29T00:51:55.854Z,0
2016-05-29T00:52:55.856Z,0
2016-05-29T00:53:55.875Z,0
2016-05-29T00:54:55.846Z,0
2016-05-29T00:55:55.739Z,0
2016-05-29T00:56:55.726Z,0
2016-05-29T00:57:55.714Z,0
2016-05-29T00:58:55.732Z,0
2016-05-29T00:59:55.874Z,0
2016-05-29T01:00:55.722Z,0
2016-05-29T01:01:55.568Z,0
2016-05-29T01:02:55.883Z,0
2016-05-29T01:03:55.573Z,0
2016-05-29T01:04:55.717Z,0
2016-05-29T01:05:56.173Z,0
2016-05-29T01:06:55.879Z,0
2016-05-29T01:07:55.584Z,0
2016-05-29T01:08:55.899Z,0
2016-05-29T01:09:55.886Z,0
2016-05-29T01:10:55.889Z,0
2016-05-29T01:11:55.736Z,0
2016-05-29T01:12:55.738Z,0
2016-05-29T01:13:55.897Z,0
2016-05-29T01:14:55.744Z,0
2016-05-29T01:15:55.918Z,0
2016-05-29T01:16:55.764Z,0
2016-05-29T01:17:55.752Z,0
2016-05-29T01:18:55.911Z,0
2016-05-29T01:19:55.757Z,0
2016-05-29T01:20:56.635Z,0
2016-05-29T01:21:55.919Z,0
2016-05-29T01:22:55.905Z,0
2016-05-29T01:23:55.752Z,0
2016-05-29T01:24:55.771Z,0
2016-05-29T01:25:55.914Z,0
2016-05-29T01:26:55.760Z,0
2016-05-29T01:27:55.763Z,0
2016-05-29T01:28:55.938Z,0
2016-05-29T01:29:55.800Z,0
2016-05-29T01:30:56.193Z,0
2016-05-29T01:31:55.758Z,0
2016-05-29T01:32:55.933Z,0
2016-05-29T01:33:55.920Z,0
2016-05-29T01:34:55.938Z,0
2016-05-29T01:35:55.832Z,0
2016-05-29T01:36:55.943Z,0
2016-05-29T01:37:55.946Z,0
2016-05-29T01:38:55.949Z,0
2016-05-29T01:39:55.951Z,0
2016-05-29T01:40:55.798Z,0
2016-05-29T01:41:55.957Z,0
2016-05-29T01:42:55.959Z,0
2016-05-29T01:43:55.962Z,0
2016-05-29T01:44:55.950Z,0
2016-05-29T01:45:55.968Z,0
2016-05-29T01:46:55.955Z,0
2016-05-29T01:47:55.973Z,0
2016-05-29T01:48:55.803Z,0
2016-05-29T01:49:55.806Z,0
2016-05-29T01:50:55.997Z,0
2016-05-29T01:51:55.968Z,0
2016-05-29T01:52:55.846Z,0
2016-05-29T01:53:55.974Z,0
2016-05-29T01:54:55.976Z,0
2016-05-29T01:55:55.994Z,0
2016-05-29T01:56:55.966Z,0
2016-05-29T01:57:55.999Z,0
2016-05-29T01:58:55.816Z,0
2016-05-29T01:59:55.990Z,0
2016-05-29T02:00:55.977Z,0
2016-05-29T02:01:55.979Z,0
2016-05-29T02:02:55.998Z,0
2016-05-29T02:03:55.985Z,0
2016-05-29T02:04:55.988Z,0
2016-05-29T02:05:56.428Z,0
2016-05-29T02:06:55.992Z,0
2016-05-29T02:07:56.012Z,0
2016-05-29T02:08:55.999Z,0
2016-05-29T02:09:56.032Z,0
2016-05-29T02:10:56.003Z,0
2016-05-29T02:11:55.851Z,0
2016-05-29T02:12:55.556Z,0
2016-05-29T02:13:55.996Z,0
2016-05-29T02:14:55.858Z,0
2016-05-29T02:15:56.017Z,0
2016-05-29T02:16:55.848Z,0
2016-05-29T02:17:56.007Z,0
2016-05-29T02:18:55.884Z,0
2016-05-29T02:19:55.856Z,0
2016-05-29T02:20:56.280Z,0
2016-05-29T02:21:56.033Z,0
2016-05-29T02:22:55.864Z,0
2016-05-29T02:23:55.725Z,0
2016-05-29T02:24:56.025Z,0
2016-05-29T02:25:56.044Z,0
2016-05-29T02:26:56.031Z,0
2016-05-29T02:27:56.033Z,0
2016-05-29T02:28:56.036Z,0
2016-05-29T02:29:56.024Z,0
2016-05-29T02:30:56.041Z,0
2016-05-29T02:31:56.044Z,0
2016-05-29T02:32:55.891Z,0
2016-05-29T02:33:55.894Z,0
2016-05-29T02:34:56.052Z,0
2016-05-29T02:35:57.227Z,0
2016-05-29T02:36:55.885Z,0
2016-05-29T02:37:56.045Z,0
2016-05-29T02:38:55.907Z,0
2016-05-29T02:39:55.737Z,0
2016-05-29T02:40:55.913Z,0
2016-05-29T02:41:56.056Z,0
2016-05-29T02:42:56.074Z,0
2016-05-29T02:43:55.920Z,0
2016-05-29T02:44:55.892Z,0
2016-05-29T02:45:55.926Z,0
2016-05-29T02:46:56.069Z,0
2016-05-29T02:47:55.932Z,0
2016-05-29T02:48:55.918Z,0
2016-05-29T02:49:55.937Z,0
2016-05-29T02:50:56.923Z,0
2016-05-29T02:51:56.082Z,0
2016-05-29T02:52:56.070Z,0
2016-05-29T02:53:56.072Z,0
2016-05-29T02:54:56.075Z,0
2016-05-29T02:55:56.077Z,0
2016-05-29T02:56:56.081Z,0
2016-05-29T02:57:56.099Z,0
2016-05-29T02:58:55.944Z,0
2016-05-29T02:59:56.089Z,0
2016-05-29T03:00:56.091Z,0
2016-05-29T03:01:56.078Z,0
2016-05-29T03:02:56.096Z,0
2016-05-29T03:03:56.130Z,0
2016-05-29T03:04:56.086Z,0
2016-05-29T03:05:56.557Z,0
2016-05-29T03:06:56.091Z,0
2016-05-29T03:07:55.954Z,0
2016-05-29T03:08:56.129Z,0
2016-05-29T03:09:56.099Z,0
2016-05-29T03:10:55.946Z,0
2016-05-29T03:11:55.949Z,0
2016-05-29T03:12:55.951Z,0
2016-05-29T03:13:55.970Z,0
2016-05-29T03:14:56.113Z,0
2016-05-29T03:15:56.116Z,0
2016-05-29T03:16:55.962Z,0
2016-05-29T03:17:56.120Z,0
2016-05-29T03:18:55.983Z,0
2016-05-29T03:19:55.970Z,0
2016-05-29T03:20:56.489Z,0
2016-05-29T03:21:55.975Z,0
2016-05-29T03:22:55.979Z,0
2016-05-29T03:23:55.966Z,0
2016-05-29T03:24:56.264Z,0
2016-05-29T03:25:56.143Z,0
2016-05-29T03:26:55.989Z,0
2016-05-29T03:27:55.977Z,0
2016-05-29T03:28:56.166Z,0
2016-05-29T03:29:56.153Z,0
2016-05-29T03:30:55.985Z,0
2016-05-29T03:31:55.987Z,0
2016-05-29T03:32:56.146Z,0
2016-05-29T03:33:56.149Z,0
2016-05-29T03:34:56.151Z,0
2016-05-29T03:35:56.232Z,0
2016-05-29T03:36:56.141Z,0
2016-05-29T03:37:56.160Z,0
2016-05-29T03:38:56.177Z,0
2016-05-29T03:39:56.165Z,0
2016-05-29T03:40:56.168Z,5
2016-05-29T03:41:55.857Z,5
2016-05-29T03:42:56.173Z,5
2016-05-29T03:43:56.020Z,5
2016-05-29T03:44:56.162Z,5
2016-05-29T03:45:56.025Z,5
2016-05-29T03:46:56.153Z,5
2016-05-29T03:47:56.170Z,5
2016-05-29T03:48:56.189Z,5
2016-05-29T03:49:56.176Z,10
2016-05-29T03:50:55.882Z,10
2016-05-29T03:51:56.025Z,10
2016-05-29T03:52:56.184Z,10
2016-05-29T03:53:56.047Z,10
2016-05-29T03:54:56.033Z,10
2016-05-29T03:55:56.177Z,10
2016-05-29T03:56:56.023Z,10
2016-05-29T03:57:56.025Z,10
2016-05-29T03:58:56.185Z,10
2016-05-29T03:59:56.187Z,10
2016-05-29T04:00:56.191Z,10
2016-05-29T04:01:56.177Z,10
2016-05-29T04:02:56.195Z,10
2016-05-29T04:03:56.199Z,10
2016-05-29T04:04:56.202Z,10
2016-05-29T04:05:56.625Z,10
2016-05-29T04:06:56.206Z,10
2016-05-29T04:07:56.210Z,10
2016-05-29T04:08:56.040Z,10
2016-05-29T04:09:56.198Z,10
2016-05-29T04:10:56.045Z,10
2016-05-29T04:11:56.204Z,10
2016-05-29T04:12:56.082Z,15
2016-05-29T04:13:56.225Z,15
2016-05-29T04:14:56.228Z,15
2016-05-29T04:15:56.231Z,15
2016-05-29T04:16:56.217Z,15
2016-05-29T04:17:56.064Z,15
2016-05-29T04:18:56.254Z,20
2016-05-29T04:19:56.085Z,20
2016-05-29T04:20:57.415Z,20
2016-05-29T04:21:56.215Z,25
2016-05-29T04:22:56.234Z,25
2016-05-29T04:23:56.220Z,30
2016-05-29T04:24:56.223Z,30
2016-05-29T04:25:56.225Z,35
2016-05-29T04:26:56.245Z,35
2016-05-29T04:27:56.075Z,35
2016-05-29T04:28:56.093Z,40
2016-05-29T04:29:56.236Z,40
2016-05-29T04:30:56.255Z,40
2016-05-29T04:31:56.242Z,45
2016-05-29T04:32:56.229Z,45
2016-05-29T04:33:56.264Z,45
2016-05-29T04:34:56.266Z,50
2016-05-29T04:35:56.300Z,50
2016-05-29T04:36:56.255Z,55
2016-05-29T04:37:56.257Z,60
2016-05-29T04:38:56.246Z,65
2016-05-29T04:39:56.263Z,70
2016-05-29T04:40:56.110Z,70
2016-05-29T04:41:56.268Z,65
2016-05-29T04:42:55.804Z,70
2016-05-29T04:43:55.962Z,70
2016-05-29T04:44:56.261Z,75
2016-05-29T04:45:56.249Z,80
2016-05-29T04:46:56.282Z,80
2016-05-29T04:47:56.113Z,80
2016-05-29T04:48:56.273Z,80
2016-05-29T04:49:56.134Z,80
2016-05-29T04:50:56.981Z,80
2016-05-29T04:51:56.280Z,80
2016-05-29T04:52:56.298Z,80
2016-05-29T04:53:56.286Z,80
2016-05-29T04:54:56.132Z,85
2016-05-29T04:55:56.291Z,90
2016-05-29T04:56:56.294Z,100
2016-05-29T04:57:56.297Z,120
2016-05-29T04:58:56.283Z,140
2016-05-29T04:59:56.302Z,160
2016-05-29T05:00:56.305Z,170
2016-05-29T05:01:56.323Z,160
2016-05-29T05:02:56.310Z,145
2016-05-29T05:03:56.313Z,125
2016-05-29T05:04:56.315Z,160
2016-05-29T05:05:56.474Z,210
2016-05-29T05:06:56.305Z,200
2016-05-29T05:07:56.323Z,150
2016-05-29T05:08:56.311Z,165
2016-05-29T05:09:56.329Z,160
2016-05-29T05:10:56.004Z,175
2016-05-29T05:11:56.334Z,260
2016-05-29T05:12:56.321Z,210
2016-05-29T05:13:56.340Z,185
2016-05-29T05:14:56.342Z,180
2016-05-29T05:15:56.330Z,160
2016-05-29T05:16:56.348Z,175
2016-05-29T05:17:56.351Z,165
2016-05-29T05:18:56.337Z,160
2016-05-29T05:19:56.355Z,160
2016-05-29T05:20:56.468Z,150
2016-05-29T05:21:56.189Z,140
2016-05-29T05:22:56.051Z,125
2016-05-29T05:23:56.194Z,115
2016-05-29T05:24:56.198Z,105
2016-05-29T05:25:56.356Z,100
2016-05-29T05:26:56.358Z,90
2016-05-29T05:27:56.221Z,85
2016-05-29T05:28:56.223Z,75
2016-05-29T05:29:56.055Z,70
2016-05-29T05:30:56.385Z,65
2016-05-29T05:31:56.388Z,60
2016-05-29T05:32:56.406Z,55
2016-05-29T05:33:55.908Z,55
2016-05-29T05:34:56.239Z,50
2016-05-29T05:35:56.633Z,50
2016-05-29T05:36:56.230Z,50
2016-05-29T05:37:56.247Z,50
2016-05-29T05:38:56.407Z,45
2016-05-29T05:39:56.253Z,45
2016-05-29T05:40:56.427Z,45
2016-05-29T05:41:56.258Z,50
2016-05-29T05:42:56.417Z,55
2016-05-29T05:43:56.295Z,60
2016-05-29T05:44:56.282Z,65
2016-05-29T05:45:56.301Z,70
2016-05-29T05:46:56.443Z,75
2016-05-29T05:47:56.274Z,80
2016-05-29T05:48:56.449Z,80
2016-05-29T05:49:56.436Z,80
2016-05-29T05:50:57.424Z,75
2016-05-29T05:51:56.301Z,70
2016-05-29T05:52:56.444Z,70
2016-05-29T05:53:56.307Z,65
2016-05-29T05:54:56.309Z,65
2016-05-29T05:55:56.452Z,60
2016-05-29T05:56:56.470Z,55
2016-05-29T05:57:56.489Z,45
2016-05-29T05:58:56.461Z,35
2016-05-29T05:59:56.463Z,30
2016-05-29T06:00:56.325Z,30
2016-05-29T06:01:56.468Z,25
2016-05-29T06:02:56.315Z,25
2016-05-29T06:03:56.489Z,25
2016-05-29T06:04:56.477Z,25
2016-05-29T06:05:56.385Z,25
2016-05-29T06:06:56.326Z,25
2016-05-29T06:07:56.485Z,25
2016-05-29T06:08:56.190Z,25
2016-05-29T06:09:56.349Z,25
2016-05-29T06:10:56.352Z,25
2016-05-29T06:11:56.355Z,25
2016-05-29T06:12:56.513Z,25
2016-05-29T06:13:56.360Z,25
2016-05-29T06:14:56.504Z,25
2016-05-29T06:15:56.521Z,25
2016-05-29T06:16:56.509Z,25
2016-05-29T06:17:56.512Z,25
2016-05-29T06:18:56.515Z,25
2016-05-29T06:19:56.360Z,25
2016-05-29T06:20:56.223Z,25
2016-05-29T06:21:56.522Z,25
2016-05-29T06:22:56.540Z,25
2016-05-29T06:23:56.231Z,25
2016-05-29T06:24:56.545Z,25
2016-05-29T06:25:56.564Z,30
2016-05-29T06:26:56.536Z,35
2016-05-29T06:27:56.539Z,40
2016-05-29T06:28:56.556Z,45
2016-05-29T06:29:56.544Z,45
2016-05-29T06:30:56.390Z,50
2016-05-29T06:31:56.550Z,55
2016-05-29T06:32:56.552Z,60
2016-05-29T06:33:56.413Z,65
2016-05-29T06:34:56.558Z,65
2016-05-29T06:35:56.575Z,70
2016-05-29T06:36:56.406Z,70
2016-05-29T06:37:56.424Z,75
2016-05-29T06:38:56.584Z,75
2016-05-29T06:39:56.571Z,80
2016-05-29T06:40:56.432Z,80
2016-05-29T06:41:56.420Z,75
2016-05-29T06:42:56.266Z,70
2016-05-29T06:43:56.268Z,65
2016-05-29T06:44:56.584Z,60
2016-05-29T06:45:56.588Z,55
2016-05-29T06:46:56.293Z,55
2016-05-29T06:47:56.607Z,50
2016-05-29T06:48:56.454Z,50
2016-05-29T06:49:56.597Z,50
2016-05-29T06:50:56.144Z,50
2016-05-29T06:51:56.603Z,55
2016-05-29T06:52:56.606Z,60
2016-05-29T06:53:56.609Z,65
2016-05-29T06:54:56.612Z,70
2016-05-29T06:55:56.629Z,75
2016-05-29T06:56:56.616Z,75
2016-05-29T06:57:56.620Z,80
2016-05-29T06:58:56.653Z,80
2016-05-29T06:59:56.625Z,90
2016-05-29T07:00:56.658Z,100
2016-05-29T07:01:56.489Z,110
2016-05-29T07:02:56.633Z,120
2016-05-29T07:03:56.494Z,125
2016-05-29T07:04:56.638Z,130
2016-05-29T07:05:56.641Z,130
2016-05-29T07:06:56.644Z,130
2016-05-29T07:07:56.630Z,135
2016-05-29T07:08:56.333Z,135
2016-05-29T07:09:56.492Z,145
2016-05-29T07:10:56.511Z,150
2016-05-29T07:11:56.657Z,145
2016-05-29T07:12:56.660Z,135
2016-05-29T07:13:56.662Z,125
2016-05-29T07:14:56.665Z,115
2016-05-29T07:15:56.524Z,105
2016-05-29T07:16:56.511Z,105
2016-05-29T07:17:56.670Z,100
2016-05-29T07:18:56.532Z,100
2016-05-29T07:19:56.691Z,100
2016-05-29T07:20:56.710Z,105
2016-05-29T07:21:56.696Z,105
2016-05-29T07:22:56.684Z,110
2016-05-29T07:23:56.686Z,120
2016-05-29T07:24:56.926Z,120
2016-05-29T07:25:56.551Z,125
2016-05-29T07:26:56.695Z,135
2016-05-29T07:27:56.697Z,135
2016-05-29T07:28:56.715Z,135
2016-05-29T07:29:56.718Z,145
2016-05-29T07:30:56.705Z,150
2016-05-29T07:31:56.708Z,160
2016-05-29T07:32:56.726Z,165
2016-05-29T07:33:56.728Z,170
2016-05-29T07:34:56.732Z,175
2016-05-29T07:35:58.269Z,180
2016-05-29T07:36:56.581Z,175
2016-05-29T07:37:56.724Z,180
2016-05-29T07:38:56.569Z,185
2016-05-29T07:39:56.589Z,190
2016-05-29T07:40:56.591Z,205
2016-05-29T07:41:56.735Z,215
2016-05-29T07:42:56.752Z,225
2016-05-29T07:43:56.584Z,230
2016-05-29T07:44:56.758Z,230
2016-05-29T07:45:56.604Z,230
2016-05-29T07:46:56.608Z,230
2016-05-29T07:47:56.782Z,225
2016-05-29T07:48:56.785Z,225
2016-05-29T07:49:56.787Z,210
2016-05-29T07:50:56.899Z,210
2016-05-29T07:51:56.777Z,205
2016-05-29T07:52:56.795Z,200
2016-05-29T07:53:56.782Z,200
2016-05-29T07:54:56.785Z,195
2016-05-29T07:55:56.804Z,200
2016-05-29T07:56:56.806Z,200
2016-05-29T07:57:56.496Z,200
2016-05-29T07:58:56.656Z,205
2016-05-29T07:59:56.814Z,210
2016-05-29T08:00:56.817Z,205
2016-05-29T08:01:56.836Z,205
2016-05-29T08:02:56.807Z,200
2016-05-29T08:03:56.669Z,200
2016-05-29T08:04:56.827Z,200
2016-05-29T08:05:57.267Z,205
2016-05-29T08:06:56.849Z,205
2016-05-29T08:07:58.697Z,215
2016-05-29T08:08:56.525Z,225
2016-05-29T08:09:56.700Z,240
2016-05-29T08:10:56.547Z,245
2016-05-29T08:11:56.863Z,240
2016-05-29T08:12:59.633Z,230
2016-05-29T08:13:56.868Z,225
2016-05-29T08:14:56.713Z,225
2016-05-29T08:15:56.733Z,220
2016-05-29T08:16:56.735Z,215
2016-05-29T08:17:59.350Z,215
2016-05-29T08:18:56.569Z,225
2016-05-29T08:19:56.899Z,230
2016-05-29T08:20:56.777Z,230
2016-05-29T08:21:56.592Z,240
2016-05-29T08:23:01.129Z,250
2016-05-29T08:23:56.910Z,255
2016-05-29T08:24:56.929Z,275
2016-05-29T08:25:56.931Z,280
2016-05-29T08:26:56.918Z,250
2016-05-29T08:28:00.890Z,245
2016-05-29T08:28:56.656Z,255
2016-05-29T08:29:56.993Z,260
2016-05-29T08:30:57.017Z,280
2016-05-29T08:31:56.903Z,280
2016-05-29T08:33:00.330Z,335
2016-05-29T08:33:57.064Z,370
2016-05-29T08:34:56.794Z,410
2016-05-29T08:35:56.821Z,425
2016-05-29T08:36:57.128Z,470
2016-05-29T08:38:00.858Z,465
2016-05-29T08:38:57.186Z,690
2016-05-29T08:39:56.989Z,895
2016-05-29T08:40:56.839Z,765
2016-05-29T08:41:57.156Z,700
2016-05-29T08:43:01.398Z,665
2016-05-29T08:43:56.851Z,715
2016-05-29T08:44:57.183Z,635
2016-05-29T08:45:57.170Z,695
2016-05-29T08:46:57.173Z,850
2016-05-29T08:48:01.227Z,970
2016-05-29T08:48:57.212Z,960
2016-05-29T08:49:57.215Z,940
2016-05-29T08:50:57.186Z,945
2016-05-29T08:51:56.939Z,875
2016-05-29T08:53:00.164Z,875
2016-05-29T08:53:57.211Z,875
2016-05-29T08:54:57.245Z,835
2016-05-29T08:55:57.249Z,795
2016-05-29T08:56:57.095Z,685
2016-05-29T08:58:04.664Z,535
2016-05-29T08:58:57.273Z,710
2016-05-29T08:59:57.275Z,680
2016-05-29T09:00:57.278Z,700
2016-05-29T09:01:56.812Z,570
2016-05-29T09:03:02.630Z,395
2016-05-29T09:03:57.130Z,320
2016-05-29T09:04:57.305Z,275
2016-05-29T09:05:58.025Z,250
2016-05-29T09:06:58.560Z,225
2016-05-29T09:08:02.206Z,215
2016-05-29T09:08:57.331Z,210
2016-05-29T09:09:57.177Z,210
2016-05-29T09:10:57.336Z,205
2016-05-29T09:11:57.338Z,200
2016-05-29T09:13:04.235Z,195
2016-05-29T09:13:57.360Z,195
2016-05-29T09:14:57.347Z,190
2016-05-29T09:15:57.365Z,190
2016-05-29T09:16:57.383Z,185
2016-05-29T09:17:57.371Z,185
2016-05-29T09:18:57.373Z,180
2016-05-29T09:19:57.423Z,175
2016-05-29T09:20:57.269Z,170
2016-05-29T09:21:58.866Z,165
2016-05-29T09:23:05.856Z,160
2016-05-29T09:23:57.418Z,155
2016-05-29T09:24:57.437Z,155
2016-05-29T09:25:57.407Z,150
2016-05-29T09:26:57.442Z,145
2016-05-29T09:28:02.165Z,140
2016-05-29T09:28:57.431Z,140
2016-05-29T09:29:57.450Z,135
2016-05-29T09:30:57.296Z,130
2016-05-29T09:31:57.455Z,130
2016-05-29T09:33:00.758Z,130
2016-05-29T09:33:57.164Z,130
2016-05-29T09:34:57.323Z,125
2016-05-29T09:35:57.200Z,125
2016-05-29T09:36:57.359Z,120
2016-05-29T09:38:02.661Z,120
2016-05-29T09:38:57.177Z,115
2016-05-29T09:39:57.508Z,110
2016-05-29T09:40:57.510Z,105
2016-05-29T09:41:57.357Z,105
2016-05-29T09:43:00.175Z,100
2016-05-29T09:43:57.363Z,100
2016-05-29T09:44:57.552Z,100
2016-05-29T09:45:57.383Z,100
2016-05-29T09:46:57.527Z,100
2016-05-29T09:48:04.157Z,100
2016-05-29T09:48:57.532Z,100
2016-05-29T09:49:57.551Z,105
2016-05-29T09:50:57.663Z,105
2016-05-29T09:51:57.431Z,110
2016-05-29T09:53:01.014Z,110
2016-05-29T09:53:57.561Z,115
2016-05-29T09:54:57.580Z,115
2016-05-29T09:55:57.582Z,120
2016-05-29T09:56:57.585Z,120
2016-05-29T09:57:57.884Z,120
2016-05-29T09:58:57.590Z,125
2016-05-29T09:59:57.609Z,125
2016-05-29T10:00:57.611Z,125
2016-05-29T10:01:57.287Z,125
2016-05-29T10:02:57.617Z,125
2016-05-29T10:03:59.557Z,125
2016-05-29T10:04:57.466Z,125
2016-05-29T10:05:57.499Z,125
2016-05-29T10:06:58.378Z,125
2016-05-29T10:08:00.474Z,125
2016-05-29T10:08:57.664Z,125
2016-05-29T10:09:57.650Z,130
2016-05-29T10:10:57.342Z,130
2016-05-29T10:11:57.656Z,130
2016-05-29T10:12:59.675Z,135
2016-05-29T10:13:58.271Z,140
2016-05-29T10:14:57.680Z,140
2016-05-29T10:15:57.667Z,140
2016-05-29T10:16:57.529Z,140
2016-05-29T10:18:03.659Z,140
2016-05-29T10:18:57.534Z,140
2016-05-29T10:19:57.522Z,140
2016-05-29T10:20:58.930Z,140
2016-05-29T10:21:57.715Z,145
2016-05-29T10:23:01.189Z,145
2016-05-29T10:23:57.705Z,145
2016-05-29T10:24:57.566Z,145
2016-05-29T10:25:57.412Z,140
2016-05-29T10:26:57.713Z,140
2016-05-29T10:28:00.168Z,140
2016-05-29T10:28:57.577Z,140
2016-05-29T10:29:57.283Z,140
2016-05-29T10:30:57.739Z,140
2016-05-29T10:31:57.742Z,140
2016-05-29T10:33:04.278Z,140
2016-05-29T10:33:57.762Z,135
2016-05-29T10:34:57.609Z,135
2016-05-29T10:35:57.815Z,135
2016-05-29T10:36:57.458Z,135
2016-05-29T10:37:59.898Z,135
2016-05-29T10:38:57.619Z,140
2016-05-29T10:39:57.778Z,140
2016-05-29T10:40:57.781Z,140
2016-05-29T10:41:57.628Z,140
2016-05-29T10:42:59.974Z,140
2016-05-29T10:43:57.633Z,140
2016-05-29T10:44:57.636Z,140
2016-05-29T10:45:57.497Z,140
2016-05-29T10:46:57.813Z,140
2016-05-29T10:48:01.175Z,135
2016-05-29T10:48:57.835Z,135
2016-05-29T10:49:57.821Z,135
2016-05-29T10:50:58.230Z,140
2016-05-29T10:51:57.843Z,140
2016-05-29T10:52:57.548Z,140
2016-05-29T10:53:57.832Z,140
2016-05-29T10:54:57.835Z,140
2016-05-29T10:55:57.853Z,135
2016-05-29T10:56:57.699Z,130
2016-05-29T10:58:01.421Z,130
2016-05-29T10:58:57.736Z,130
2016-05-29T10:59:57.895Z,125
2016-05-29T11:00:57.882Z,125
2016-05-29T11:01:57.870Z,120
2016-05-29T11:02:59.887Z,110
2016-05-29T11:03:57.890Z,105
2016-05-29T11:04:57.893Z,100
2016-05-29T11:05:57.817Z,95
2016-05-29T11:06:57.773Z,95
2016-05-29T11:08:00.026Z,90
2016-05-29T11:08:57.747Z,85
2016-05-29T11:09:57.906Z,85
2016-05-29T11:10:57.909Z,85
2016-05-29T11:11:57.771Z,85
2016-05-29T11:12:58.758Z,90
2016-05-29T11:13:58.792Z,95
2016-05-29T11:14:57.935Z,100
2016-05-29T11:15:57.953Z,100
2016-05-29T11:16:58.112Z,95
2016-05-29T11:17:59.474Z,95
2016-05-29T11:18:57.790Z,95
2016-05-29T11:19:57.636Z,100
2016-05-29T11:20:57.966Z,110
2016-05-29T11:21:57.813Z,115
2016-05-29T11:23:01.144Z,125
2016-05-29T11:23:57.819Z,135
2016-05-29T11:24:57.993Z,140
2016-05-29T11:25:57.980Z,140
2016-05-29T11:26:57.967Z,135
2016-05-29T11:28:00.830Z,135
2016-05-29T11:28:57.832Z,130
2016-05-29T11:29:57.990Z,125
2016-05-29T11:30:57.838Z,130
2016-05-29T11:31:57.996Z,130
2016-05-29T11:33:00.499Z,140
2016-05-29T11:33:58.001Z,145
2016-05-29T11:34:58.004Z,155
2016-05-29T11:35:57.601Z,170
2016-05-29T11:36:57.870Z,185
2016-05-29T11:37:58.512Z,195
2016-05-29T11:38:57.875Z,205
2016-05-29T11:39:58.033Z,210
2016-05-29T11:40:57.881Z,215
2016-05-29T11:41:57.883Z,215
2016-05-29T11:43:01.855Z,200
2016-05-29T11:43:58.044Z,190
2016-05-29T11:44:58.047Z,165
2016-05-29T11:45:57.894Z,145
2016-05-29T11:46:58.068Z,150
2016-05-29T11:48:01.680Z,160
2016-05-29T11:48:58.058Z,165
2016-05-29T11:49:57.919Z,175
2016-05-29T11:50:58.266Z,175
2016-05-29T11:51:58.097Z,175
2016-05-29T11:53:01.990Z,185
2016-05-29T11:53:58.087Z,195
2016-05-29T11:54:58.105Z,205
2016-05-29T11:55:58.108Z,200
2016-05-29T11:56:57.954Z,185
2016-05-29T11:57:59.535Z,175
2016-05-29T11:58:58.101Z,160
2016-05-29T11:59:58.118Z,150
2016-05-29T12:00:57.981Z,140
2016-05-29T12:01:58.124Z,130
2016-05-29T12:02:58.298Z,125
2016-05-29T12:03:58.145Z,120
2016-05-29T12:04:57.976Z,110
2016-05-29T12:05:57.995Z,110
2016-05-29T12:06:58.137Z,110
2016-05-29T12:07:59.640Z,110
2016-05-29T12:08:57.987Z,115
2016-05-29T12:09:58.161Z,115
2016-05-29T12:10:58.180Z,115
2016-05-29T12:11:58.026Z,120
2016-05-29T12:12:58.028Z,120
2016-05-29T12:13:58.016Z,120
2016-05-29T12:14:58.191Z,115
2016-05-29T12:15:58.194Z,110
2016-05-29T12:16:58.180Z,100
2016-05-29T12:17:59.949Z,100
2016-05-29T12:18:58.044Z,95
2016-05-29T12:19:58.047Z,95
2016-05-29T12:20:58.175Z,90
2016-05-29T12:21:58.241Z,95
2016-05-29T12:23:00.555Z,90
2016-05-29T12:23:58.058Z,90
2016-05-29T12:24:58.217Z,90
2016-05-29T12:25:58.236Z,85
2016-05-29T12:26:58.238Z,85
2016-05-29T12:27:59.818Z,80
2016-05-29T12:28:58.228Z,75
2016-05-29T12:29:58.231Z,70
2016-05-29T12:30:58.249Z,65
2016-05-29T12:31:58.268Z,60
2016-05-29T12:32:58.270Z,50
2016-05-29T12:33:58.256Z,45
2016-05-29T12:34:58.259Z,40
2016-05-29T12:35:58.013Z,35
2016-05-29T12:36:58.312Z,30
2016-05-29T12:38:02.393Z,30
2016-05-29T12:38:58.286Z,30
2016-05-29T12:39:58.273Z,30
2016-05-29T12:40:58.010Z,30
2016-05-29T12:41:58.279Z,30
2016-05-29T12:43:02.062Z,30
2016-05-29T12:43:58.299Z,30
2016-05-29T12:44:58.146Z,25
2016-05-29T12:45:58.305Z,25
2016-05-29T12:46:58.308Z,20
2016-05-29T12:48:01.263Z,20
2016-05-29T12:48:58.157Z,20
2016-05-29T12:49:58.175Z,20
2016-05-29T12:50:57.913Z,20
2016-05-29T12:51:58.368Z,20
2016-05-29T12:53:01.699Z,20
2016-05-29T12:53:58.185Z,20
2016-05-29T12:54:58.189Z,15
2016-05-29T12:55:58.191Z,15
2016-05-29T12:56:58.350Z,15
2016-05-29T12:58:03.602Z,10
2016-05-29T12:58:58.215Z,10
2016-05-29T12:59:58.202Z,10
2016-05-29T13:00:58.361Z,10
2016-05-29T13:01:58.348Z,5
2016-05-29T13:03:00.881Z,5
2016-05-29T13:03:58.072Z,5
2016-05-29T13:04:58.231Z,5
2016-05-29T13:05:58.593Z,5
2016-05-29T13:06:58.221Z,10
2016-05-29T13:08:01.067Z,10
2016-05-29T13:08:58.382Z,15
2016-05-29T13:09:58.385Z,15
2016-05-29T13:10:58.403Z,15
2016-05-29T13:11:58.234Z,20
2016-05-29T13:12:58.111Z,20
2016-05-29T13:13:58.396Z,20
2016-05-29T13:14:58.414Z,25
2016-05-29T13:15:58.261Z,25
2016-05-29T13:16:58.435Z,30
2016-05-29T13:18:00.969Z,30
2016-05-29T13:18:58.425Z,35
2016-05-29T13:19:58.271Z,40
2016-05-29T13:20:59.321Z,40
2016-05-29T13:21:59.339Z,40
2016-05-29T13:23:00.733Z,40
2016-05-29T13:23:58.438Z,40
2016-05-29T13:24:58.488Z,40
2016-05-29T13:25:58.491Z,45
2016-05-29T13:26:58.446Z,45
2016-05-29T13:27:59.246Z,50
2016-05-29T13:28:58.436Z,55
2016-05-29T13:29:58.470Z,60
2016-05-29T13:30:58.473Z,65
2016-05-29T13:31:58.319Z,70
2016-05-29T13:33:01.072Z,75
2016-05-29T13:33:58.465Z,75
2016-05-29T13:34:58.327Z,75
2016-05-29T13:35:58.440Z,75
2016-05-29T13:36:59.473Z,75
2016-05-29T13:37:58.539Z,75
2016-05-29T13:38:58.478Z,75
2016-05-29T13:39:58.326Z,75
2016-05-29T13:40:58.343Z,85
2016-05-29T13:41:58.503Z,90
2016-05-29T13:42:59.536Z,100
2016-05-29T13:43:58.523Z,100
2016-05-29T13:44:58.495Z,100
2016-05-29T13:45:58.498Z,95
2016-05-29T13:46:58.500Z,85
2016-05-29T13:47:58.533Z,80
2016-05-29T13:48:58.364Z,75
2016-05-29T13:49:58.352Z,65
2016-05-29T13:50:59.136Z,60
2016-05-29T13:51:58.405Z,55
2016-05-29T13:53:00.172Z,50
2016-05-29T13:53:58.378Z,45
2016-05-29T13:54:58.381Z,45
2016-05-29T13:55:58.399Z,45
2016-05-29T13:56:58.371Z,50
2016-05-29T13:57:59.686Z,50
2016-05-29T13:58:58.407Z,50
2016-05-29T13:59:58.551Z,50
2016-05-29T14:00:58.382Z,45
2016-05-29T14:01:58.399Z,40
2016-05-29T14:03:00.215Z,40
2016-05-29T14:03:58.093Z,40
2016-05-29T14:04:58.408Z,35
2016-05-29T14:05:58.895Z,35
2016-05-29T14:06:58.835Z,35
2016-05-29T14:08:01.806Z,30
2016-05-29T14:08:58.590Z,30
2016-05-29T14:09:58.578Z,30
2016-05-29T14:10:58.581Z,30
2016-05-29T14:11:58.583Z,30